Time;durP1;ratioP1;P1;durP2;ratioP2;P2;SDS_P1;SDS_P2;PMS_P1;PMS_P2;Temp;Humidity;BMP_temperature;BMP_pressure;BME280_temperature;BME280_humidity;BME280_pressure;Samples;Min_cycle;Max_cycle;Signal;HPM_P1;HPM_P2
2021/06/15 00:01:13;;;;;;;12.77;12.13;;;24.60;80.00;;;;;;3606581;39;21091;-65
2021/06/15 00:03:42;;;;;;;13.27;12.40;;;24.60;80.00;;;;;;3606768;39;20879;-65
2021/06/15 00:06:09;;;;;;;12.70;11.97;;;24.60;79.90;;;;;;3605081;39;20500;-66
2021/06/15 00:08:38;;;;;;;14.00;13.00;;;24.60;80.00;;;;;;3605596;39;20476;-66
2021/06/15 00:11:08;;;;;;;13.70;12.80;;;24.60;79.80;;;;;;3606283;39;20496;-66
2021/06/15 00:13:36;;;;;;;13.07;12.07;;;24.60;79.80;;;;;;3598705;39;20489;-65
2021/06/15 00:16:03;;;;;;;12.10;11.50;;;24.60;79.80;;;;;;3604425;39;20484;-65
2021/06/15 00:18:30;;;;;;;13.07;12.10;;;24.60;79.70;;;;;;3605910;39;20480;-65
2021/06/15 00:20:58;;;;;;;12.60;11.70;;;24.60;79.70;;;;;;3607255;39;20472;-66
2021/06/15 00:23:25;;;;;;;13.27;12.37;;;24.60;79.70;;;;;;3605239;39;20486;-66
2021/06/15 00:26:04;;;;;;;13.03;12.20;;;24.60;79.60;;;;;;3597149;39;20939;-66
2021/06/15 00:28:36;;;;;;;12.83;12.07;;;24.60;79.60;;;;;;3595688;40;20542;-66
2021/06/15 00:31:06;;;;;;;13.03;12.20;;;24.50;79.40;;;;;;3602332;39;20487;-66
2021/06/15 00:33:34;;;;;;;13.47;12.30;;;24.60;79.50;;;;;;3604420;39;21027;-66
2021/06/15 00:36:02;;;;;;;13.33;12.50;;;24.60;79.50;;;;;;3595259;39;20468;-65
2021/06/15 00:38:31;;;;;;;13.80;12.87;;;24.60;79.60;;;;;;3596233;40;20468;-65
2021/06/15 00:40:58;;;;;;;14.53;13.73;;;24.60;79.50;;;;;;3586854;40;20488;-65
2021/06/15 00:43:26;;;;;;;13.80;13.00;;;24.60;79.40;;;;;;3595367;40;20485;-65
2021/06/15 00:45:56;;;;;;;13.87;12.97;;;24.50;79.30;;;;;;3602222;39;20496;-65
2021/06/15 00:48:29;;;;;;;12.70;12.10;;;24.60;79.40;;;;;;3602514;39;20488;-65
2021/06/15 00:50:57;;;;;;;14.07;13.13;;;24.60;79.50;;;;;;3586008;40;20508;-66
2021/06/15 00:53:26;;;;;;;13.27;12.10;;;24.60;79.30;;;;;;3595645;40;20868;-66
2021/06/15 00:55:54;;;;;;;13.30;12.50;;;24.60;79.40;;;;;;3601664;39;20483;-66
2021/06/15 00:58:22;;;;;;;12.27;11.57;;;24.60;79.30;;;;;;3605841;39;20745;-66
2021/06/15 01:00:51;;;;;;;13.60;12.70;;;24.60;79.40;;;;;;3593063;40;20485;-66
2021/06/15 01:03:23;;;;;;;13.67;12.87;;;24.60;79.30;;;;;;3595905;40;20521;-66
2021/06/15 01:05:51;;;;;;;14.33;13.33;;;24.60;79.30;;;;;;3584166;40;20471;-65
2021/06/15 01:08:30;;;;;;;13.10;12.20;;;24.60;79.30;;;;;;3584669;40;21079;-66
2021/06/15 01:11:04;;;;;;;13.17;12.37;;;24.60;79.30;;;;;;3585621;40;20470;-66
2021/06/15 01:13:43;;;;;;;12.60;11.80;;;24.60;79.20;;;;;;3585176;40;20481;-65
2021/06/15 01:16:21;;;;;;;13.40;12.60;;;24.60;79.20;;;;;;3583951;40;20854;-65
2021/06/15 01:18:55;;;;;;;12.83;11.83;;;24.60;79.10;;;;;;3584939;40;20898;-66
2021/06/15 01:21:27;;;;;;;12.93;12.23;;;24.50;79.10;;;;;;3584359;40;20926;-66
2021/06/15 01:24:16;;;;;;;13.23;12.50;;;24.50;79.00;;;;;;3587715;39;20491;-66
2021/06/15 01:27:10;;;;;;;13.90;12.93;;;24.60;79.10;;;;;;3604912;39;20912;-66
2021/06/15 01:29:43;;;;;;;15.67;14.40;;;24.60;79.20;;;;;;3605248;39;21109;-66
2021/06/15 01:32:21;;;;;;;13.43;12.53;;;24.60;79.00;;;;;;3588738;40;20473;-66
2021/06/15 01:34:49;;;;;;;14.03;13.20;;;24.60;79.00;;;;;;3594915;40;20852;-65
2021/06/15 01:37:21;;;;;;;13.37;12.23;;;24.50;78.90;;;;;;3595151;40;20493;-65
2021/06/15 01:39:53;;;;;;;13.60;12.80;;;24.50;78.90;;;;;;3595926;39;20488;-65
2021/06/15 01:42:32;;;;;;;13.27;12.40;;;24.60;78.90;;;;;;3605592;39;20486;-66
2021/06/15 01:45:08;;;;;;;12.47;11.70;;;24.50;78.80;;;;;;3594991;39;20502;-66
2021/06/15 01:47:40;;;;;;;12.37;11.67;;;24.50;78.70;;;;;;3605752;39;20544;-66
2021/06/15 01:50:11;;;;;;;12.67;12.07;;;24.50;78.70;;;;;;3595071;39;20581;-66
2021/06/15 01:52:41;;;;;;;13.23;12.30;;;24.50;78.60;;;;;;3604849;39;20520;-65
2021/06/15 01:55:13;;;;;;;13.07;12.30;;;24.50;78.70;;;;;;3604575;39;20484;-65
2021/06/15 01:57:56;;;;;;;12.90;11.90;;;24.50;78.60;;;;;;3604683;39;20476;-66
2021/06/15 02:00:27;;;;;;;12.83;12.13;;;24.50;78.60;;;;;;3605726;39;20480;-65
2021/06/15 02:03:03;;;;;;;12.60;11.80;;;24.50;78.60;;;;;;3605874;39;20492;-65
2021/06/15 02:05:39;;;;;;;12.60;11.90;;;24.50;78.60;;;;;;3605377;39;20474;-65
2021/06/15 02:08:12;;;;;;;12.63;11.73;;;24.50;79.40;;;;;;3604265;39;20527;-65
2021/06/15 02:10:44;;;;;;;13.17;12.27;;;24.50;78.60;;;;;;3599711;39;20736;-65
2021/06/15 02:13:32;;;;;;;13.27;12.30;;;24.50;78.60;;;;;;3604483;39;20536;-65
2021/06/15 02:16:14;;;;;;;14.17;12.87;;;24.50;78.60;;;;;;3594902;40;20483;-66
2021/06/15 02:18:54;;;;;;;15.03;13.53;;;24.50;78.60;;;;;;3599334;39;20784;-66
2021/06/15 02:21:32;;;;;;;13.60;12.70;;;24.50;78.50;;;;;;3606359;39;20791;-66
2021/06/15 02:24:01;;;;;;;13.93;12.93;;;24.50;78.50;;;;;;3605325;39;20528;-66
2021/06/15 02:26:32;;;;;;;12.80;12.00;;;24.50;78.50;;;;;;3605010;39;20472;-66
2021/06/15 02:29:01;;;;;;;13.20;12.30;;;24.50;78.40;;;;;;3593910;40;20474;-66
2021/06/15 02:31:33;;;;;;;13.10;12.30;;;24.50;78.40;;;;;;3595261;40;20487;-66
2021/06/15 02:34:13;;;;;;;13.33;12.33;;;24.50;78.40;;;;;;3585805;40;20468;-66
2021/06/15 02:36:49;;;;;;;12.77;12.10;;;24.50;78.40;;;;;;3594496;40;20492;-66
2021/06/15 02:39:21;;;;;;;13.90;12.90;;;24.50;78.30;;;;;;3596327;39;20484;-66
2021/06/15 02:41:49;;;;;;;12.97;12.20;;;24.50;78.40;;;;;;3594470;40;21012;-66
2021/06/15 02:44:20;;;;;;;13.37;12.50;;;24.50;78.30;;;;;;3595236;39;21008;-66
2021/06/15 02:46:57;;;;;;;14.07;13.10;;;24.50;78.30;;;;;;3598038;39;20634;-66
2021/06/15 02:49:30;;;;;;;14.10;12.77;;;24.50;78.30;;;;;;3593742;39;20887;-66
2021/06/15 02:52:07;;;;;;;13.00;12.10;;;24.50;78.30;;;;;;3578542;40;20477;-66
2021/06/15 02:54:39;;;;;;;14.60;13.50;;;24.50;78.20;;;;;;3597432;39;20498;-66
2021/06/15 02:57:11;;;;;;;14.57;13.50;;;24.50;78.10;;;;;;3596586;39;20486;-66
2021/06/15 02:59:39;;;;;;;14.00;13.20;;;24.50;78.10;;;;;;3600985;39;20481;-66
2021/06/15 03:02:10;;;;;;;14.93;13.80;;;24.50;78.10;;;;;;3594645;39;20473;-66
2021/06/15 03:04:46;;;;;;;12.90;12.10;;;24.50;78.10;;;;;;3606016;39;20484;-66
2021/06/15 03:07:15;;;;;;;13.47;12.70;;;24.50;78.00;;;;;;3595968;39;20469;-66
2021/06/15 03:09:46;;;;;;;13.50;12.70;;;24.50;77.90;;;;;;3599908;39;20473;-66
2021/06/15 03:12:25;;;;;;;14.57;13.40;;;24.50;77.90;;;;;;3596364;39;20489;-66
2021/06/15 03:15:01;;;;;;;14.00;13.30;;;24.50;77.80;;;;;;3587192;40;20878;-66
2021/06/15 03:17:34;;;;;;;14.17;13.47;;;24.50;77.80;;;;;;3596805;40;20484;-66
2021/06/15 03:20:05;;;;;;;13.60;12.80;;;24.50;77.80;;;;;;3592769;39;20519;-66
2021/06/15 03:22:48;;;;;;;13.90;13.10;;;24.50;77.70;;;;;;3605088;39;20482;-66
2021/06/15 03:25:20;;;;;;;14.40;13.33;;;24.50;77.70;;;;;;3597152;39;20476;-66
2021/06/15 03:27:54;;;;;;;14.83;13.93;;;24.50;77.60;;;;;;3596510;39;20472;-66
2021/06/15 03:30:22;;;;;;;14.07;13.17;;;24.50;77.60;;;;;;3589231;39;20489;-66
2021/06/15 03:32:57;;;;;;;13.80;12.87;;;24.50;77.60;;;;;;3595234;40;20855;-66
2021/06/15 03:35:28;;;;;;;14.30;13.40;;;24.50;77.50;;;;;;3595511;40;20507;-66
2021/06/15 03:38:00;;;;;;;14.13;13.33;;;24.50;77.40;;;;;;3586463;40;20466;-66
2021/06/15 03:40:33;;;;;;;14.10;13.03;;;24.50;77.40;;;;;;3578744;40;20558;-66
2021/06/15 03:43:03;;;;;;;14.40;13.60;;;24.50;77.50;;;;;;3575078;40;20487;-66
2021/06/15 03:45:38;;;;;;;14.20;13.37;;;24.50;77.40;;;;;;3569223;40;21161;-65
2021/06/15 03:48:09;;;;;;;13.80;13.10;;;24.50;77.40;;;;;;3564676;40;20491;-65
2021/06/15 03:50:38;;;;;;;14.13;13.37;;;24.50;77.40;;;;;;3564523;40;20480;-65
2021/06/15 03:53:10;;;;;;;13.73;12.83;;;24.40;77.20;;;;;;3564997;40;20484;-65
2021/06/15 03:55:41;;;;;;;14.20;13.50;;;24.50;77.30;;;;;;3564565;40;20512;-65
2021/06/15 03:58:11;;;;;;;14.60;13.70;;;24.50;77.20;;;;;;3564777;40;20488;-65
2021/06/15 04:00:42;;;;;;;14.87;14.07;;;24.50;77.20;;;;;;3565266;40;20486;-66
2021/06/15 04:03:14;;;;;;;15.17;14.10;;;24.50;77.20;;;;;;3565283;40;20597;-66
2021/06/15 04:05:43;;;;;;;15.47;14.43;;;24.50;77.20;;;;;;3564689;40;20497;-66
2021/06/15 04:08:14;;;;;;;14.87;13.97;;;24.40;77.10;;;;;;3564293;40;20484;-65
2021/06/15 04:10:45;;;;;;;15.13;14.23;;;24.50;77.10;;;;;;3564779;40;20487;-65
2021/06/15 04:13:15;;;;;;;16.27;14.97;;;24.50;77.10;;;;;;3564228;40;21079;-64
2021/06/15 04:15:44;;;;;;;14.63;13.83;;;24.50;77.00;;;;;;3563707;40;20480;-64
2021/06/15 04:18:16;;;;;;;16.57;15.47;;;24.50;77.10;;;;;;3572057;40;20949;-65
2021/06/15 04:20:49;;;;;;;15.87;14.97;;;24.50;77.10;;;;;;3574368;40;20478;-64
2021/06/15 04:23:19;;;;;;;16.00;15.10;;;24.50;77.00;;;;;;3574406;40;21100;-64
2021/06/15 04:25:48;;;;;;;16.27;15.37;;;24.50;77.60;;;;;;3572280;40;20488;-64
2021/06/15 04:28:16;;;;;;;15.07;14.27;;;24.50;76.90;;;;;;3579822;39;20499;-64
2021/06/15 04:30:46;;;;;;;16.80;15.80;;;24.50;76.80;;;;;;3583534;40;20469;-64
2021/06/15 04:33:16;;;;;;;14.73;13.93;;;24.50;76.70;;;;;;3592617;39;20481;-64
2021/06/15 04:35:48;;;;;;;15.30;14.43;;;24.50;76.70;;;;;;3591794;40;20513;-64
2021/06/15 04:38:21;;;;;;;15.23;14.50;;;24.50;76.50;;;;;;3591364;39;20489;-64
2021/06/15 04:40:50;;;;;;;15.30;14.40;;;24.50;76.50;;;;;;3590994;40;20834;-64
2021/06/15 04:43:27;;;;;;;16.80;15.77;;;24.50;76.50;;;;;;3589829;40;20515;-64
2021/06/15 04:45:59;;;;;;;16.33;15.30;;;24.60;76.60;;;;;;3598183;39;20476;-63
2021/06/15 04:48:32;;;;;;;17.03;15.83;;;24.60;76.60;;;;;;3592933;39;21440;-64
2021/06/15 04:51:02;;;;;;;15.43;14.50;;;24.60;76.50;;;;;;3590815;39;20481;-64
2021/06/15 04:53:32;;;;;;;15.87;14.73;;;24.60;76.50;;;;;;3580697;40;20915;-64
2021/06/15 04:56:01;;;;;;;16.30;15.20;;;24.60;76.40;;;;;;3595852;39;21239;-64
2021/06/15 04:58:33;;;;;;;16.53;15.57;;;24.60;76.40;;;;;;3600380;39;20532;-65
2021/06/15 05:01:01;;;;;;;16.00;15.10;;;24.60;76.40;;;;;;3601757;39;20708;-65
2021/06/15 05:03:33;;;;;;;14.93;14.20;;;24.60;76.30;;;;;;3598942;39;20486;-65
2021/06/15 05:06:04;;;;;;;15.90;14.90;;;24.60;76.30;;;;;;3591407;39;20485;-65
2021/06/15 05:08:35;;;;;;;15.53;14.53;;;24.60;76.30;;;;;;3593650;39;20469;-65
2021/06/15 05:11:04;;;;;;;16.20;15.30;;;24.60;76.30;;;;;;3597921;39;20476;-65
2021/06/15 05:13:36;;;;;;;16.87;15.83;;;24.60;76.20;;;;;;3599294;39;20557;-64
2021/06/15 05:16:05;;;;;;;16.03;15.03;;;24.60;76.20;;;;;;3589340;39;20492;-64
2021/06/15 05:18:35;;;;;;;15.97;15.17;;;24.60;76.10;;;;;;3586680;40;20494;-64
2021/06/15 05:21:03;;;;;;;17.10;15.93;;;24.60;76.30;;;;;;3577820;40;20590;-64
2021/06/15 05:23:37;;;;;;;15.83;15.03;;;24.60;76.20;;;;;;3587442;40;20501;-64
2021/06/15 05:26:05;;;;;;;16.07;14.97;;;24.60;76.30;;;;;;3591818;39;20548;-64
2021/06/15 05:28:33;;;;;;;16.37;15.23;;;24.60;76.40;;;;;;3595466;39;20492;-64
2021/06/15 05:31:01;;;;;;;16.67;15.47;;;24.60;76.40;;;;;;3592708;39;20500;-64
2021/06/15 05:33:29;;;;;;;17.37;16.27;;;24.60;76.40;;;;;;3584155;40;20801;-64
2021/06/15 05:36:08;;;;;;;16.57;15.47;;;24.60;76.50;;;;;;3586011;39;20495;-64
2021/06/15 05:38:37;;;;;;;17.20;15.73;;;24.60;76.50;;;;;;3588512;39;20477;-64
2021/06/15 05:41:05;;;;;;;16.03;14.77;;;24.60;76.40;;;;;;3583222;39;20485;-66
2021/06/15 05:43:33;;;;;;;15.00;14.00;;;24.50;76.00;;;;;;3588455;39;20566;-66
2021/06/15 05:46:01;;;;;;;15.73;14.80;;;24.20;76.50;;;;;;3579603;40;20476;-66
2021/06/15 05:48:29;;;;;;;16.53;15.53;;;23.80;76.60;;;;;;3572147;39;20486;-66
2021/06/15 05:51:00;;;;;;;15.17;14.33;;;23.40;77.60;;;;;;3585586;39;20586;-66
2021/06/15 05:53:27;;;;;;;15.37;14.40;;;23.10;78.00;;;;;;3567333;40;20499;-66
2021/06/15 05:55:56;;;;;;;16.30;15.40;;;22.90;79.50;;;;;;3585668;39;20496;-66
2021/06/15 05:58:24;;;;;;;15.87;14.87;;;22.70;79.40;;;;;;3588240;39;20495;-65
2021/06/15 06:00:51;;;;;;;15.23;14.40;;;22.60;79.50;;;;;;3587970;39;20773;-65
2021/06/15 06:03:22;;;;;;;16.20;15.30;;;22.50;80.40;;;;;;3579589;39;20520;-66
2021/06/15 06:08:36;;;;;;;14.90;14.07;;;22.40;81.00;;;;;;3580668;39;20480;-66
2021/06/15 06:11:04;;;;;;;15.70;14.80;;;22.40;81.10;;;;;;3586175;39;20492;-66
2021/06/15 06:13:33;;;;;;;14.90;14.13;;;22.50;81.40;;;;;;3576907;39;20476;-66
2021/06/15 06:16:08;;;;;;;13.97;13.17;;;22.50;81.20;;;;;;3574896;39;20497;-66
2021/06/15 06:18:36;;;;;;;16.07;14.77;;;22.60;81.30;;;;;;3575296;39;20495;-64
2021/06/15 06:21:09;;;;;;;14.97;13.80;;;22.70;80.80;;;;;;3570624;39;20526;-64
2021/06/15 06:23:40;;;;;;;15.30;14.17;;;22.70;80.90;;;;;;3566345;40;20480;-65
2021/06/15 06:26:08;;;;;;;14.70;13.80;;;22.90;81.80;;;;;;3577874;40;20501;-65
2021/06/15 06:28:36;;;;;;;14.10;13.40;;;22.90;81.10;;;;;;3579467;39;20932;-66
2021/06/15 06:31:04;;;;;;;13.97;13.17;;;22.90;80.10;;;;;;3580861;39;20866;-63
2021/06/15 06:33:32;;;;;;;14.37;13.27;;;23.00;79.60;;;;;;3577890;39;20485;-63
2021/06/15 06:36:01;;;;;;;14.80;13.90;;;23.20;79.70;;;;;;3576358;39;20521;-64
2021/06/15 06:38:29;;;;;;;14.90;13.90;;;23.30;79.50;;;;;;3576167;39;20754;-64
2021/06/15 06:40:58;;;;;;;14.47;13.77;;;23.50;79.50;;;;;;3583276;39;20516;-64
2021/06/15 06:43:27;;;;;;;14.13;13.30;;;23.60;79.30;;;;;;3576607;40;20501;-64
2021/06/15 06:45:55;;;;;;;14.57;13.77;;;23.70;79.20;;;;;;3574130;40;20496;-64
2021/06/15 06:48:23;;;;;;;14.00;13.30;;;23.80;79.10;;;;;;3574276;39;20473;-65
2021/06/15 06:50:51;;;;;;;14.37;13.67;;;23.90;79.10;;;;;;3565273;40;20486;-64
2021/06/15 06:53:19;;;;;;;14.90;14.00;;;24.00;79.00;;;;;;3573874;40;20568;-63
2021/06/15 06:55:47;;;;;;;15.00;14.20;;;24.00;79.00;;;;;;3561871;40;20601;-65
2021/06/15 06:58:16;;;;;;;15.50;14.10;;;24.00;78.80;;;;;;3575734;39;20504;-65
2021/06/15 07:00:44;;;;;;;15.57;14.37;;;24.10;79.00;;;;;;3575510;39;20504;-65
2021/06/15 07:03:11;;;;;;;14.63;13.70;;;24.20;79.00;;;;;;3576274;39;20496;-65
2021/06/15 07:05:42;;;;;;;16.60;15.30;;;24.20;79.10;;;;;;3573934;39;20501;-65
2021/06/15 07:08:12;;;;;;;15.60;14.60;;;24.20;79.10;;;;;;3575298;40;20487;-65
2021/06/15 07:10:39;;;;;;;14.40;13.70;;;24.20;79.10;;;;;;3580930;39;20504;-64
2021/06/15 07:13:07;;;;;;;14.00;13.40;;;24.30;79.20;;;;;;3582749;39;20480;-65
2021/06/15 07:15:36;;;;;;;14.07;13.37;;;24.30;79.20;;;;;;3582860;39;21273;-65
2021/06/15 07:18:03;;;;;;;14.57;13.43;;;24.30;79.20;;;;;;3582921;39;20581;-65
2021/06/15 07:20:31;;;;;;;13.50;12.80;;;24.30;79.20;;;;;;3578466;39;20489;-65
2021/06/15 07:22:59;;;;;;;14.70;13.90;;;24.30;79.20;;;;;;3573251;40;20473;-65
2021/06/15 07:25:27;;;;;;;15.10;14.30;;;24.40;79.30;;;;;;3571161;40;21196;-64
2021/06/15 07:27:55;;;;;;;15.60;14.50;;;24.40;79.40;;;;;;3573696;39;21027;-64
2021/06/15 07:30:23;;;;;;;16.70;15.80;;;24.40;79.30;;;;;;3577960;39;20797;-64
2021/06/15 07:32:56;;;;;;;16.20;15.40;;;24.40;80.10;;;;;;3572388;39;21484;-64
2021/06/15 07:35:24;;;;;;;16.73;15.73;;;24.40;79.30;;;;;;3574796;39;21005;-64
2021/06/15 07:37:53;;;;;;;17.20;15.90;;;24.40;79.40;;;;;;3583680;39;20520;-64
2021/06/15 07:40:23;;;;;;;17.43;16.20;;;24.40;79.40;;;;;;3577994;39;20507;-63
2021/06/15 07:42:50;;;;;;;16.17;15.27;;;24.40;79.40;;;;;;3575539;39;20594;-64
2021/06/15 07:45:18;;;;;;;15.83;14.97;;;24.40;79.40;;;;;;3576395;39;20933;-64
2021/06/15 07:47:46;;;;;;;17.07;16.07;;;24.50;79.60;;;;;;3574033;39;20485;-65
2021/06/15 07:50:17;;;;;;;16.07;15.00;;;24.40;79.50;;;;;;3570977;39;20523;-64
2021/06/15 07:52:46;;;;;;;16.20;15.30;;;24.40;79.50;;;;;;3575577;39;20477;-64
2021/06/15 07:55:18;;;;;;;16.07;15.10;;;24.50;79.60;;;;;;3583628;39;20906;-65
2021/06/15 07:57:48;;;;;;;15.80;14.80;;;24.50;79.50;;;;;;3574720;39;20481;-65
2021/06/15 08:00:18;;;;;;;16.13;15.30;;;24.50;79.50;;;;;;3580368;39;20488;-64
2021/06/15 08:02:47;;;;;;;16.27;14.90;;;24.50;79.50;;;;;;3564829;40;20725;-64
2021/06/15 08:05:15;;;;;;;15.50;14.60;;;24.50;79.40;;;;;;3573790;40;20507;-65
2021/06/15 08:07:44;;;;;;;16.27;15.37;;;24.50;79.30;;;;;;3575950;39;20501;-65
2021/06/15 08:10:12;;;;;;;16.60;15.43;;;24.50;79.20;;;;;;3574435;39;20482;-65
2021/06/15 08:12:39;;;;;;;15.87;15.00;;;24.50;79.10;;;;;;3578643;39;20524;-64
2021/06/15 08:15:10;;;;;;;15.37;14.40;;;24.50;78.90;;;;;;3575539;39;20492;-65
2021/06/15 08:17:39;;;;;;;16.33;15.37;;;24.50;78.90;;;;;;3577608;39;20531;-65
2021/06/15 08:20:14;;;;;;;17.50;16.40;;;24.50;78.80;;;;;;3581090;39;20481;-64
2021/06/15 08:22:45;;;;;;;15.80;14.80;;;24.50;78.70;;;;;;3575641;39;21080;-63
2021/06/15 08:25:13;;;;;;;15.00;14.20;;;24.50;78.60;;;;;;3566650;39;20494;-65
2021/06/15 08:27:42;;;;;;;14.80;14.00;;;24.50;78.60;;;;;;3580576;39;20504;-65
2021/06/15 08:30:11;;;;;;;16.10;15.30;;;24.50;78.60;;;;;;3573702;39;21566;-65
2021/06/15 08:32:40;;;;;;;15.70;14.70;;;24.60;78.50;;;;;;3572996;39;20528;-65
2021/06/15 08:35:09;;;;;;;15.20;14.40;;;24.60;78.50;;;;;;3572213;39;20546;-64
2021/06/15 08:37:40;;;;;;;15.27;14.33;;;24.60;78.50;;;;;;3570731;40;20492;-65
2021/06/15 08:40:10;;;;;;;15.10;14.20;;;24.60;78.50;;;;;;3574101;39;20501;-66
2021/06/15 08:42:39;;;;;;;16.50;15.40;;;24.60;78.40;;;;;;3555726;40;20574;-65
2021/06/15 08:45:09;;;;;;;14.87;13.97;;;24.60;78.30;;;;;;3562799;39;20500;-66
2021/06/15 08:47:41;;;;;;;16.13;14.93;;;24.60;78.20;;;;;;3562937;39;20519;-64
2021/06/15 08:50:11;;;;;;;14.87;14.20;;;24.60;78.90;;;;;;3572759;39;20480;-64
2021/06/15 08:52:40;;;;;;;15.90;15.00;;;24.60;78.20;;;;;;3573931;39;20477;-64
2021/06/15 08:55:10;;;;;;;16.00;15.20;;;24.60;78.10;;;;;;3572852;39;21230;-65
2021/06/15 08:57:39;;;;;;;15.40;14.50;;;24.60;78.00;;;;;;3579922;39;20887;-64
2021/06/15 09:00:09;;;;;;;14.90;14.10;;;24.60;78.00;;;;;;3576709;39;20490;-65
2021/06/15 09:02:42;;;;;;;14.97;14.17;;;24.60;77.90;;;;;;3580195;39;20561;-64
2021/06/15 09:05:11;;;;;;;15.73;14.77;;;24.60;77.80;;;;;;3580701;39;20484;-64
2021/06/15 09:08:00;;;;;;;15.33;14.53;;;24.60;77.80;;;;;;3576425;39;20702;-65
2021/06/15 09:10:29;;;;;;;14.77;13.97;;;24.60;77.80;;;;;;3572961;39;20890;-65
2021/06/15 09:12:56;;;;;;;14.50;13.80;;;24.60;77.70;;;;;;3573505;39;20494;-65
2021/06/15 09:15:24;;;;;;;15.60;14.77;;;24.60;77.70;;;;;;3572879;39;20577;-65
2021/06/15 09:17:53;;;;;;;14.23;13.40;;;24.60;77.60;;;;;;3565793;39;21393;-65
2021/06/15 09:20:22;;;;;;;14.50;13.60;;;24.60;77.50;;;;;;3578211;39;20504;-65
2021/06/15 09:22:58;;;;;;;14.53;13.73;;;24.60;77.50;;;;;;3577315;39;20480;-64
2021/06/15 09:25:28;;;;;;;14.37;13.67;;;24.60;77.50;;;;;;3551294;40;20470;-64
2021/06/15 09:27:58;;;;;;;14.80;13.93;;;24.60;77.50;;;;;;3549423;40;20494;-62
2021/06/15 09:30:30;;;;;;;14.70;13.90;;;24.60;77.40;;;;;;3551540;40;20907;-63
2021/06/15 09:33:09;;;;;;;13.57;12.80;;;24.60;77.40;;;;;;3550125;40;20501;-63
2021/06/15 09:35:37;;;;;;;13.30;12.80;;;24.70;78.20;;;;;;3548630;40;20517;-63
2021/06/15 09:38:04;;;;;;;14.10;13.40;;;24.70;77.40;;;;;;3549689;40;20487;-63
2021/06/15 09:40:36;;;;;;;13.80;13.20;;;24.70;77.20;;;;;;3555628;40;20714;-63
2021/06/15 09:43:09;;;;;;;13.17;12.57;;;24.70;77.20;;;;;;3554088;40;20490;-63
2021/06/15 09:45:41;;;;;;;13.30;12.63;;;24.70;77.10;;;;;;3561198;40;20482;-64
2021/06/15 09:48:27;;;;;;;14.60;13.70;;;24.70;76.90;;;;;;3556941;39;20494;-63
2021/06/15 09:50:59;;;;;;;13.83;13.20;;;24.70;76.90;;;;;;3570821;39;20525;-63
2021/06/15 09:53:32;;;;;;;14.07;13.17;;;24.70;76.80;;;;;;3575604;39;20489;-63
2021/06/15 09:56:03;;;;;;;13.07;12.40;;;24.70;76.70;;;;;;3573234;39;20485;-63
2021/06/15 09:58:45;;;;;;;14.00;13.40;;;24.70;76.50;;;;;;3573420;39;20530;-63
2021/06/15 10:01:24;;;;;;;14.40;13.13;;;24.70;76.80;;;;;;3579762;39;20530;-62
2021/06/15 10:04:09;;;;;;;14.20;13.50;;;24.70;76.40;;;;;;3578734;39;20488;-63
2021/06/15 10:06:40;;;;;;;13.77;12.97;;;24.70;76.30;;;;;;3579615;39;20503;-63
2021/06/15 10:09:09;;;;;;;13.90;13.20;;;24.70;76.20;;;;;;3571847;39;20487;-63
2021/06/15 10:11:38;;;;;;;14.47;13.77;;;24.70;76.10;;;;;;3578263;39;20576;-63
2021/06/15 10:14:06;;;;;;;13.87;13.17;;;24.70;76.00;;;;;;3575657;39;20489;-63
2021/06/15 10:16:33;;;;;;;13.73;13.17;;;24.70;76.00;;;;;;3574234;39;20508;-63
2021/06/15 10:19:02;;;;;;;14.07;13.37;;;24.70;76.60;;;;;;3573919;39;20473;-63
2021/06/15 10:21:31;;;;;;;14.80;13.97;;;24.70;75.80;;;;;;3582943;39;20489;-65
2021/06/15 10:23:59;;;;;;;13.50;12.90;;;24.70;75.70;;;;;;3575485;40;20833;-65
2021/06/15 10:26:27;;;;;;;13.67;13.00;;;24.70;75.60;;;;;;3573221;39;20539;-65
2021/06/15 10:28:56;;;;;;;14.53;13.90;;;24.70;75.50;;;;;;3572717;39;20484;-66
2021/06/15 10:31:29;;;;;;;14.73;13.83;;;24.70;75.50;;;;;;3580208;39;20581;-64
2021/06/15 10:33:58;;;;;;;14.03;13.33;;;24.70;75.40;;;;;;3582966;39;20922;-64
2021/06/15 10:36:38;;;;;;;13.17;12.50;;;24.70;75.40;;;;;;3582897;39;20496;-66
2021/06/15 10:39:06;;;;;;;13.83;13.20;;;24.70;75.50;;;;;;3576969;39;20496;-65
2021/06/15 10:41:33;;;;;;;13.40;12.70;;;24.70;75.50;;;;;;3512742;39;20489;-65
2021/06/15 10:44:03;;;;;;;14.27;13.57;;;24.70;75.40;;;;;;3574485;39;20481;-64
2021/06/15 10:46:35;;;;;;;14.60;13.80;;;24.80;75.60;;;;;;3579095;39;20547;-64
2021/06/15 10:49:07;;;;;;;14.40;13.70;;;24.70;75.50;;;;;;3570615;40;20492;-65
2021/06/15 10:51:42;;;;;;;14.30;13.60;;;24.70;75.60;;;;;;3577325;39;20477;-64
2021/06/15 10:54:30;;;;;;;14.93;14.07;;;24.70;75.60;;;;;;3585513;39;20499;-65
2021/06/15 10:57:17;;;;;;;15.23;14.37;;;24.80;75.90;;;;;;3580585;39;21219;-65
2021/06/15 11:00:08;;;;;;;14.30;13.50;;;24.80;75.90;;;;;;3580203;39;20484;-65
2021/06/15 11:02:38;;;;;;;14.97;14.17;;;24.80;76.00;;;;;;3576314;39;21387;-66
2021/06/15 11:05:39;;;;;;;14.40;13.70;;;24.70;75.90;;;;;;3575135;40;21468;-66
2021/06/15 11:08:19;;;;;;;15.77;14.97;;;24.80;76.10;;;;;;3576249;40;20480;-63
2021/06/15 11:10:49;;;;;;;15.10;14.20;;;24.80;76.20;;;;;;3578649;39;20484;-63
2021/06/15 11:13:19;;;;;;;15.70;14.67;;;24.80;76.20;;;;;;3584710;39;20485;-63
2021/06/15 11:16:02;;;;;;;15.20;14.30;;;24.80;76.30;;;;;;3587722;39;20673;-63
2021/06/15 11:18:29;;;;;;;15.43;14.73;;;24.80;76.30;;;;;;3579684;39;20572;-64
2021/06/15 11:21:18;;;;;;;15.80;15.00;;;24.80;76.30;;;;;;3584540;39;20977;-64
2021/06/15 11:23:45;;;;;;;15.00;14.20;;;24.80;76.30;;;;;;3578888;39;20825;-63
2021/06/15 11:26:17;;;;;;;15.93;15.03;;;24.80;76.40;;;;;;3552308;40;21325;-64
2021/06/15 11:28:47;;;;;;;14.90;14.17;;;24.80;76.40;;;;;;3542934;40;20585;-64
2021/06/15 11:31:33;;;;;;;15.30;14.60;;;24.80;76.30;;;;;;3544524;40;20486;-65
2021/06/15 11:34:17;;;;;;;14.97;14.20;;;24.70;76.30;;;;;;3533458;40;20484;-63
2021/06/15 11:36:57;;;;;;;15.10;14.40;;;24.80;76.30;;;;;;3530479;40;20550;-62
2021/06/15 11:39:36;;;;;;;15.23;14.37;;;24.70;76.20;;;;;;3545415;40;20492;-63
2021/06/15 11:42:20;;;;;;;14.53;13.80;;;24.80;76.30;;;;;;3541706;40;20811;-63
2021/06/15 11:44:52;;;;;;;14.20;13.50;;;24.80;76.30;;;;;;3541382;40;21379;-63
2021/06/15 11:47:30;;;;;;;14.40;13.70;;;24.70;76.20;;;;;;3545692;40;20494;-63
2021/06/15 11:50:11;;;;;;;13.97;13.27;;;24.80;76.30;;;;;;3551731;40;20493;-62
2021/06/15 11:52:42;;;;;;;14.47;13.77;;;24.80;76.30;;;;;;3545530;40;20913;-62
2021/06/15 11:55:11;;;;;;;14.47;13.77;;;24.80;76.30;;;;;;3546563;40;20492;-63
2021/06/15 11:57:40;;;;;;;14.00;13.40;;;24.70;76.10;;;;;;3544590;40;20490;-65
2021/06/15 12:00:14;;;;;;;14.00;13.10;;;24.70;76.20;;;;;;3550983;40;20807;-65
2021/06/15 12:02:43;;;;;;;14.13;13.43;;;24.80;77.00;;;;;;3549833;40;20914;-64
2021/06/15 12:05:13;;;;;;;13.50;12.80;;;24.80;76.30;;;;;;3547448;40;20581;-64
2021/06/15 12:07:42;;;;;;;15.63;14.63;;;24.80;76.30;;;;;;3548827;40;20491;-64
2021/06/15 12:10:14;;;;;;;14.90;14.03;;;24.80;76.30;;;;;;3553991;40;20491;-65
2021/06/15 12:13:07;;;;;;;15.03;14.10;;;24.80;76.30;;;;;;3551696;40;20483;-64
2021/06/15 12:15:39;;;;;;;15.47;14.60;;;24.80;76.30;;;;;;3545294;40;20789;-64
2021/06/15 12:18:10;;;;;;;13.80;13.03;;;24.80;76.30;;;;;;3552372;40;21264;-64
2021/06/15 12:20:42;;;;;;;14.03;13.30;;;24.80;76.30;;;;;;3547129;40;20483;-64
2021/06/15 12:23:30;;;;;;;16.07;15.17;;;24.80;76.50;;;;;;3547892;40;20495;-64
2021/06/15 12:26:08;;;;;;;15.30;14.40;;;24.80;76.50;;;;;;3557209;40;20504;-64
2021/06/15 12:28:38;;;;;;;15.20;14.17;;;24.80;76.50;;;;;;3571209;39;20505;-65
2021/06/15 12:31:11;;;;;;;15.07;14.27;;;24.80;76.60;;;;;;3579924;39;20671;-63
2021/06/15 12:33:45;;;;;;;15.53;14.53;;;24.80;76.60;;;;;;3578884;39;20500;-64
2021/06/15 12:36:15;;;;;;;14.77;13.97;;;24.80;76.70;;;;;;3576979;39;20494;-64
2021/06/15 12:38:45;;;;;;;15.03;14.23;;;24.80;76.70;;;;;;3577938;39;20473;-64
2021/06/15 12:41:15;;;;;;;15.03;14.10;;;24.80;76.70;;;;;;3589023;39;20486;-63
2021/06/15 12:43:43;;;;;;;15.17;14.40;;;24.80;76.80;;;;;;3573951;39;21168;-63
2021/06/15 12:46:19;;;;;;;15.10;14.20;;;24.80;76.80;;;;;;3574739;40;20507;-64
2021/06/15 12:48:50;;;;;;;15.20;14.37;;;24.80;76.90;;;;;;3579829;39;20554;-64
2021/06/15 12:51:21;;;;;;;14.50;13.63;;;24.80;76.90;;;;;;3586516;39;20928;-63
2021/06/15 12:53:49;;;;;;;15.37;14.57;;;24.80;76.90;;;;;;3585968;39;20909;-64